createdAt,value
2023-09-22T00:00:50.988Z,95.70
2023-09-22T00:01:50.967Z,95.19
2023-09-22T00:02:50.966Z,95.09
2023-09-22T00:03:51.119Z,94.98
2023-09-22T00:04:50.974Z,95.19
2023-09-22T00:05:50.910Z,94.98
2023-09-22T00:06:50.950Z,94.58
2023-09-22T00:07:50.888Z,94.89
2023-09-22T00:08:50.898Z,94.07
2023-09-22T00:09:50.939Z,94.07
2023-09-22T00:10:50.854Z,94.68
2023-09-22T00:11:50.848Z,94.18
2023-09-22T00:12:50.834Z,94.58
2023-09-22T00:13:50.816Z,93.67
2023-09-22T00:14:50.831Z,94.27
2023-09-22T00:15:50.875Z,94.48
2023-09-22T00:16:50.799Z,94.27
2023-09-22T00:17:50.782Z,93.87
2023-09-22T00:18:50.816Z,93.26
2023-09-22T00:19:50.768Z,93.26
2023-09-22T00:20:50.754Z,93.06
2023-09-22T00:21:50.769Z,93.57
2023-09-22T00:22:50.715Z,93.16
2023-09-22T00:23:50.711Z,93.06
2023-09-22T00:24:50.759Z,93.37
2023-09-22T00:25:50.711Z,93.26
2023-09-22T00:26:51.396Z,93.26
2023-09-22T00:27:50.760Z,93.51
2023-09-22T00:28:50.653Z,93.61
2023-09-22T00:29:50.662Z,93.61
2023-09-22T00:30:50.691Z,93.30
2023-09-22T00:31:50.676Z,93.41
2023-09-22T00:32:50.670Z,93.71
2023-09-22T00:33:50.612Z,93.81
2023-09-22T00:34:50.610Z,94.73
2023-09-22T00:35:50.600Z,94.83
2023-09-22T00:36:50.615Z,94.37
2023-09-22T00:37:50.575Z,95.18
2023-09-22T00:38:50.559Z,95.68
2023-09-22T00:39:50.599Z,95.99
2023-09-22T00:40:50.520Z,96.60
2023-09-22T00:41:50.520Z,95.68
2023-09-22T00:42:50.547Z,96.14
2023-09-22T00:43:50.485Z,95.53
2023-09-22T00:44:50.510Z,95.94
2023-09-22T00:45:50.531Z,95.53
2023-09-22T00:46:50.535Z,95.63
2023-09-22T00:47:50.477Z,96.14
2023-09-22T00:48:50.479Z,95.22
2023-09-22T00:49:50.442Z,95.22
2023-09-22T00:50:50.426Z,94.51
2023-09-22T00:51:50.434Z,94.31
2023-09-22T00:52:50.392Z,94.31
2023-09-22T00:53:50.391Z,94.17
2023-09-22T00:54:50.474Z,94.17
2023-09-22T00:55:50.379Z,94.06
2023-09-22T00:56:50.375Z,93.86
2023-09-22T00:57:50.360Z,93.45
2023-09-22T00:58:50.336Z,93.45
2023-09-22T00:59:50.315Z,93.25
2023-09-22T01:00:50.342Z,93.45
2023-09-22T01:01:50.347Z,93.76
2023-09-22T01:02:50.353Z,93.49
2023-09-22T01:03:50.518Z,93.80
2023-09-22T01:04:50.321Z,93.80
2023-09-22T01:05:50.281Z,93.60
2023-09-22T01:06:50.279Z,93.40
2023-09-22T01:07:50.235Z,93.60
2023-09-22T01:08:50.228Z,93.90
2023-09-22T01:09:50.320Z,93.70
2023-09-22T01:10:50.208Z,93.29
2023-09-22T01:11:50.194Z,93.29
2023-09-22T01:12:50.207Z,93.09
2023-09-22T01:13:50.190Z,93.29
2023-09-22T01:14:50.152Z,93.09
2023-09-22T01:15:50.299Z,93.40
2023-09-22T01:16:50.160Z,93.29
2023-09-22T01:17:50.133Z,92.99
2023-09-22T01:18:50.132Z,93.09
2023-09-22T01:19:50.099Z,93.03
2023-09-22T01:20:50.109Z,93.24
2023-09-22T01:21:50.226Z,93.24
2023-09-22T01:22:50.060Z,92.93
2023-09-22T01:23:50.056Z,93.03
2023-09-22T01:24:50.158Z,92.52
2023-09-22T01:25:50.069Z,92.52
2023-09-22T01:26:50.030Z,92.32
2023-09-22T01:27:50.044Z,92.22
2023-09-22T01:28:50.026Z,92.42
2023-09-22T01:29:49.985Z,92.42
2023-09-22T01:30:50.032Z,92.12
2023-09-22T01:31:49.999Z,92.12
2023-09-22T01:32:49.994Z,92.02
2023-09-22T01:33:49.999Z,92.42
2023-09-22T01:34:49.938Z,92.02
2023-09-22T01:35:49.938Z,91.91
2023-09-22T01:36:49.941Z,91.65
2023-09-22T01:37:49.899Z,91.75
2023-09-22T01:38:49.975Z,91.25
2023-09-22T01:39:49.912Z,90.84
2023-09-22T01:40:49.886Z,91.00
2023-09-22T01:41:49.858Z,91.00
2023-09-22T01:42:49.897Z,91.35
2023-09-22T01:43:49.834Z,91.75
2023-09-22T01:44:49.830Z,92.06
2023-09-22T01:45:49.930Z,92.16
2023-09-22T01:46:49.824Z,92.36
2023-09-22T01:47:49.862Z,92.36
2023-09-22T01:48:49.902Z,92.26
2023-09-22T01:49:49.765Z,92.26
2023-09-22T01:50:49.774Z,92.36
2023-09-22T01:51:49.764Z,92.51
2023-09-22T01:52:49.746Z,92.91
2023-09-22T01:53:49.739Z,93.32
2023-09-22T01:54:49.742Z,93.83
2023-09-22T01:55:49.723Z,93.93
2023-09-22T01:56:49.694Z,94.54
2023-09-22T01:57:49.757Z,94.64
2023-09-22T01:58:49.663Z,94.64
2023-09-22T01:59:49.655Z,95.15
2023-09-22T02:00:49.788Z,95.05
2023-09-22T02:01:49.672Z,95.56
2023-09-22T02:02:49.746Z,95.50
2023-09-22T02:03:49.796Z,95.61
2023-09-22T02:04:49.705Z,96.42
2023-09-22T02:05:49.605Z,96.62
2023-09-22T02:06:49.667Z,96.42
2023-09-22T02:07:49.583Z,96.11
2023-09-22T02:08:49.553Z,96.01
2023-09-22T02:09:49.583Z,96.62
2023-09-22T02:10:49.552Z,96.72
2023-09-22T02:11:49.528Z,96.87
2023-09-22T02:12:49.540Z,96.77
2023-09-22T02:13:49.510Z,96.36
2023-09-22T02:14:49.497Z,96.36
2023-09-22T02:15:49.516Z,96.06
2023-09-22T02:16:49.522Z,96.67
2023-09-22T02:17:49.482Z,96.97
2023-09-22T02:18:49.537Z,97.38
2023-09-22T02:19:49.442Z,97.78
2023-09-22T02:20:49.489Z,98.09
2023-09-22T02:21:49.447Z,98.75
2023-09-22T02:22:49.395Z,99.46
2023-09-22T02:23:49.382Z,99.87
2023-09-22T02:24:49.463Z,99.99
2023-09-22T02:25:49.381Z,99.99
2023-09-22T02:26:49.347Z,99.99
2023-09-22T02:27:49.365Z,99.99
2023-09-22T02:28:49.338Z,99.99
2023-09-22T02:29:49.334Z,99.99
2023-09-22T02:30:49.368Z,99.99
2023-09-22T02:31:49.343Z,99.99
2023-09-22T02:32:49.330Z,99.99
2023-09-22T02:33:49.374Z,99.99
2023-09-22T02:34:49.308Z,99.99
2023-09-22T02:35:49.276Z,99.99
2023-09-22T02:36:49.319Z,99.99
2023-09-22T02:37:49.224Z,99.99
2023-09-22T02:38:49.245Z,99.99
2023-09-22T02:39:49.237Z,99.99
2023-09-22T02:40:49.227Z,99.99
2023-09-22T02:41:49.192Z,99.99
2023-09-22T02:42:49.236Z,99.99
2023-09-22T02:43:49.168Z,99.99
2023-09-22T02:44:49.185Z,99.99
2023-09-22T02:45:49.258Z,99.99
2023-09-22T02:46:49.295Z,99.99
2023-09-22T02:47:49.453Z,99.99
2023-09-22T02:48:49.148Z,99.99
2023-09-22T02:49:49.131Z,99.99
2023-09-22T02:50:49.082Z,99.99
2023-09-22T02:51:49.171Z,99.99
2023-09-22T02:52:49.053Z,99.99
2023-09-22T02:53:49.050Z,99.99
2023-09-22T02:54:49.068Z,99.99
2023-09-22T02:55:49.022Z,99.99
2023-09-22T02:56:49.032Z,99.99
2023-09-22T02:57:49.376Z,99.99
2023-09-22T02:58:48.993Z,99.99
2023-09-22T02:59:49.002Z,99.99
2023-09-22T03:00:49.058Z,99.99
2023-09-22T03:01:49.027Z,99.99
2023-09-22T03:02:49.049Z,99.99
2023-09-22T03:03:49.121Z,99.99
2023-09-22T03:04:48.923Z,99.99
2023-09-22T03:05:48.928Z,99.99
2023-09-22T03:06:48.991Z,99.99
2023-09-22T03:07:48.897Z,99.99
2023-09-22T03:08:48.888Z,99.99
2023-09-22T03:09:48.893Z,99.99
2023-09-22T03:10:48.863Z,99.99
2023-09-22T03:11:48.886Z,99.99
2023-09-22T03:12:48.865Z,99.99
2023-09-22T03:13:48.852Z,99.99
2023-09-22T03:14:48.813Z,99.99
2023-09-22T03:15:48.882Z,99.99
2023-09-22T03:16:48.849Z,99.99
2023-09-22T03:17:48.833Z,99.99
2023-09-22T03:18:48.856Z,99.99
2023-09-22T03:19:48.776Z,99.99
2023-09-22T03:20:48.745Z,99.99
2023-09-22T03:21:48.806Z,99.99
2023-09-22T03:22:48.737Z,99.99
2023-09-22T03:23:48.728Z,99.99
2023-09-22T03:24:48.753Z,99.99
2023-09-22T03:25:48.716Z,99.99
2023-09-22T03:26:48.745Z,99.99
2023-09-22T03:27:48.728Z,99.99
2023-09-22T03:28:48.704Z,99.99
2023-09-22T03:29:48.654Z,99.99
2023-09-22T03:30:48.695Z,99.99
2023-09-22T03:31:48.791Z,99.99
2023-09-22T03:32:48.623Z,99.99
2023-09-22T03:33:48.664Z,99.99
2023-09-22T03:34:48.626Z,99.99
2023-09-22T03:35:48.603Z,99.99
2023-09-22T03:36:49.469Z,99.99
2023-09-22T03:37:48.572Z,99.99
2023-09-22T03:38:48.560Z,99.99
2023-09-22T03:39:48.555Z,99.99
2023-09-22T03:40:48.536Z,99.99
2023-09-22T03:41:48.558Z,99.99
2023-09-22T03:42:48.558Z,99.99
2023-09-22T03:43:48.510Z,99.99
2023-09-22T03:44:48.487Z,99.99
2023-09-22T03:45:48.523Z,99.99
2023-09-22T03:46:48.525Z,99.99
2023-09-22T03:47:48.505Z,99.99
2023-09-22T03:48:48.481Z,99.99
2023-09-22T03:49:50.471Z,99.99
2023-09-22T03:50:48.433Z,99.99
2023-09-22T03:51:48.476Z,99.99
2023-09-22T03:52:48.398Z,99.99
2023-09-22T03:53:48.436Z,99.99
2023-09-22T03:54:48.405Z,99.99
2023-09-22T03:55:48.361Z,99.99
2023-09-22T03:56:48.382Z,99.99
2023-09-22T03:57:48.365Z,99.99
2023-09-22T03:58:48.330Z,99.99
2023-09-22T03:59:48.314Z,99.99
2023-09-22T04:00:48.395Z,99.99
2023-09-22T04:01:48.365Z,99.99
2023-09-22T04:02:48.434Z,99.99
2023-09-22T04:03:50.647Z,99.99
2023-09-22T04:04:48.285Z,99.99
2023-09-22T04:05:48.255Z,99.99
2023-09-22T04:06:48.276Z,99.99
2023-09-22T04:07:48.277Z,99.99
2023-09-22T04:08:48.232Z,99.99
2023-09-22T04:09:48.220Z,99.99
2023-09-22T04:10:48.227Z,99.99
2023-09-22T04:11:48.211Z,99.99
2023-09-22T04:12:48.209Z,99.99
2023-09-22T04:13:48.165Z,99.99
2023-09-22T04:14:48.175Z,99.99
2023-09-22T04:15:48.211Z,99.99
2023-09-22T04:16:48.261Z,99.99
2023-09-22T04:17:48.278Z,99.99
2023-09-22T04:18:48.395Z,99.99
2023-09-22T04:19:48.091Z,99.99
2023-09-22T04:20:48.123Z,99.99
2023-09-22T04:21:48.161Z,99.99
2023-09-22T04:22:48.130Z,99.99
2023-09-22T04:23:48.092Z,99.99
2023-09-22T04:24:48.067Z,99.99
2023-09-22T04:25:48.042Z,99.99
2023-09-22T04:26:48.062Z,99.99
2023-09-22T04:27:48.059Z,99.99
2023-09-22T04:28:47.993Z,99.99
2023-09-22T04:29:47.981Z,99.99
2023-09-22T04:30:48.062Z,99.99
2023-09-22T04:31:47.978Z,99.99
2023-09-22T04:32:48.048Z,99.99
2023-09-22T04:33:48.009Z,99.99
2023-09-22T04:34:47.955Z,99.99
2023-09-22T04:35:47.925Z,99.99
2023-09-22T04:36:47.949Z,99.99
2023-09-22T04:37:47.919Z,99.99
2023-09-22T04:38:47.900Z,99.99
2023-09-22T04:39:47.974Z,99.99
2023-09-22T04:40:47.861Z,99.99
2023-09-22T04:41:47.869Z,99.99
2023-09-22T04:42:47.954Z,99.99
2023-09-22T04:43:47.841Z,99.99
2023-09-22T04:44:47.811Z,99.99
2023-09-22T04:45:47.863Z,99.99
2023-09-22T04:46:47.840Z,99.99
2023-09-22T04:47:47.843Z,99.99
2023-09-22T04:48:48.183Z,99.99
2023-09-22T04:49:47.780Z,99.99
2023-09-22T04:50:47.752Z,99.99
2023-09-22T04:51:47.810Z,99.99
2023-09-22T04:52:47.744Z,99.99
2023-09-22T04:53:47.737Z,99.99
2023-09-22T04:54:47.746Z,99.99
2023-09-22T04:55:47.695Z,99.99
2023-09-22T04:56:47.702Z,99.99
2023-09-22T04:57:47.721Z,99.99
2023-09-22T04:58:47.679Z,99.99
2023-09-22T04:59:47.660Z,99.99
2023-09-22T05:00:47.709Z,99.99
2023-09-22T05:01:47.728Z,99.99
2023-09-22T05:02:47.692Z,99.99
2023-09-22T05:03:47.664Z,99.99
2023-09-22T05:04:47.595Z,99.99
2023-09-22T05:05:47.582Z,99.99
2023-09-22T05:06:47.623Z,99.99
2023-09-22T05:07:47.594Z,99.99
2023-09-22T05:08:47.543Z,99.99
2023-09-22T05:09:47.565Z,99.99
2023-09-22T05:10:47.525Z,99.99
2023-09-22T05:11:47.515Z,99.99
2023-09-22T05:12:47.550Z,99.99
2023-09-22T05:13:47.496Z,99.99
2023-09-22T05:14:47.483Z,99.99
2023-09-22T05:15:47.553Z,99.99
2023-09-22T05:16:47.489Z,99.99
2023-09-22T05:17:47.552Z,99.99
2023-09-22T05:18:47.558Z,99.99
2023-09-22T05:19:47.428Z,99.99
2023-09-22T05:20:47.415Z,99.99
2023-09-22T05:21:47.459Z,99.99
2023-09-22T05:22:47.423Z,99.99
2023-09-22T05:23:47.404Z,99.99
2023-09-22T05:24:47.397Z,99.99
2023-09-22T05:25:47.367Z,99.99
2023-09-22T05:26:47.396Z,99.99
2023-09-22T05:27:47.402Z,99.99
2023-09-22T05:28:47.467Z,99.99
2023-09-22T05:29:47.316Z,99.99
2023-09-22T05:30:47.366Z,99.99
2023-09-22T05:31:47.418Z,99.99
2023-09-22T05:32:47.376Z,99.99
2023-09-22T05:33:47.301Z,99.99
2023-09-22T05:34:47.286Z,99.99
2023-09-22T05:35:47.275Z,99.99
2023-09-22T05:36:47.258Z,99.99
2023-09-22T05:37:47.248Z,99.99
2023-09-22T05:38:47.539Z,99.99
2023-09-22T05:39:47.238Z,99.99
2023-09-22T05:40:47.195Z,99.99
2023-09-22T05:41:47.220Z,99.99
2023-09-22T05:42:47.212Z,99.99
2023-09-22T05:43:47.156Z,99.99
2023-09-22T05:44:47.204Z,99.99
2023-09-22T05:45:47.161Z,99.99
2023-09-22T05:46:47.160Z,99.99
2023-09-22T05:47:47.158Z,99.99
2023-09-22T05:48:47.346Z,99.99
2023-09-22T05:49:47.093Z,99.99
2023-09-22T05:50:47.080Z,99.99
2023-09-22T05:51:47.100Z,99.99
2023-09-22T05:52:47.083Z,99.99
2023-09-22T05:53:47.058Z,99.99
2023-09-22T05:54:47.076Z,99.99
2023-09-22T05:55:47.024Z,99.99
2023-09-22T05:56:47.009Z,99.99
2023-09-22T05:57:47.094Z,99.99
2023-09-22T05:58:47.040Z,99.99
2023-09-22T05:59:46.988Z,99.99
2023-09-22T06:00:46.973Z,99.99
2023-09-22T06:01:47.003Z,99.99
2023-09-22T06:02:46.991Z,99.99
2023-09-22T06:03:46.995Z,99.99
2023-09-22T06:04:46.984Z,99.99
2023-09-22T06:05:47.617Z,99.99
2023-09-22T06:06:46.938Z,99.99
2023-09-22T06:07:46.937Z,99.99
2023-09-22T06:08:47.392Z,99.99
2023-09-22T06:09:46.959Z,99.99
2023-09-22T06:10:46.862Z,99.99
2023-09-22T06:11:49.335Z,99.99
2023-09-22T06:12:46.888Z,99.99
2023-09-22T06:13:46.849Z,99.99
2023-09-22T06:14:46.833Z,99.99
2023-09-22T06:15:46.813Z,99.99
2023-09-22T06:16:46.851Z,99.99
2023-09-22T06:17:46.832Z,99.99
2023-09-22T06:18:46.929Z,99.99
2023-09-22T06:19:46.779Z,99.99
2023-09-22T06:20:46.802Z,99.99
2023-09-22T06:21:46.754Z,99.99
2023-09-22T06:22:46.881Z,99.99
2023-09-22T06:23:46.726Z,99.99
2023-09-22T06:24:46.758Z,99.99
2023-09-22T06:25:46.695Z,99.99
2023-09-22T06:26:46.679Z,99.99
2023-09-22T06:27:46.833Z,99.99
2023-09-22T06:28:46.969Z,99.99
2023-09-22T06:29:46.691Z,99.99
2023-09-22T06:30:46.654Z,99.99
2023-09-22T06:31:46.643Z,99.99
2023-09-22T06:32:46.676Z,99.99
2023-09-22T06:33:46.650Z,99.99
2023-09-22T06:34:46.647Z,99.99
2023-09-22T06:35:46.592Z,99.99
2023-09-22T06:36:46.626Z,99.99
2023-09-22T06:37:46.576Z,99.99
2023-09-22T06:38:46.761Z,99.99
2023-09-22T06:39:46.575Z,99.99
2023-09-22T06:40:46.528Z,99.99
2023-09-22T06:41:46.532Z,99.99
2023-09-22T06:42:47.101Z,99.99
2023-09-22T06:43:55.783Z,99.99
2023-09-22T06:44:46.491Z,99.99
2023-09-22T06:45:46.498Z,99.99
2023-09-22T06:46:46.524Z,99.99
2023-09-22T06:47:46.503Z,99.99
2023-09-22T06:48:46.674Z,99.63
2023-09-22T06:49:46.458Z,98.52
2023-09-22T06:50:46.435Z,96.84
2023-09-22T06:51:46.427Z,97.15
2023-09-22T06:52:46.393Z,96.03
2023-09-22T06:53:46.424Z,96.23
2023-09-22T06:54:46.373Z,96.03
2023-09-22T06:55:46.363Z,95.94
2023-09-22T06:56:50.310Z,95.22
2023-09-22T06:57:46.396Z,94.51
2023-09-22T06:58:46.545Z,95.02
2023-09-22T06:59:46.315Z,94.51
2023-09-22T07:00:46.338Z,94.71
2023-09-22T07:01:46.334Z,94.10
2023-09-22T07:02:46.322Z,94.10
2023-09-22T07:03:46.415Z,95.12
2023-09-22T07:04:46.271Z,95.12
2023-09-22T07:05:46.270Z,93.80
2023-09-22T07:06:46.268Z,93.70
2023-09-22T07:07:46.241Z,94.17
2023-09-22T07:08:46.646Z,92.94
2023-09-22T07:09:46.312Z,93.96
2023-09-22T07:10:46.224Z,93.25
2023-09-22T07:11:46.181Z,93.35
2023-09-22T07:12:46.195Z,93.86
2023-09-22T07:13:46.208Z,93.96
2023-09-22T07:14:46.149Z,93.25
2023-09-22T07:15:46.232Z,92.74
2023-09-22T07:16:46.258Z,92.24
2023-09-22T07:17:46.168Z,92.03
2023-09-22T07:18:46.361Z,92.60
2023-09-22T07:19:46.098Z,92.19
2023-09-22T07:20:46.087Z,91.17
2023-09-22T07:21:46.110Z,91.08
2023-09-22T07:22:47.038Z,91.38
2023-09-22T07:23:46.094Z,91.38
2023-09-22T07:24:46.054Z,91.08
2023-09-22T07:25:46.070Z,90.88
2023-09-22T07:26:46.040Z,90.57
2023-09-22T07:27:46.165Z,90.16
2023-09-22T07:28:46.209Z,90.16
2023-09-22T07:29:45.984Z,88.95
2023-09-22T07:30:46.001Z,88.44
2023-09-22T07:31:46.017Z,88.03
2023-09-22T07:32:46.057Z,88.40
2023-09-22T07:33:46.031Z,88.29
2023-09-22T07:34:45.943Z,88.40
2023-09-22T07:35:45.931Z,88.29
2023-09-22T07:36:45.941Z,88.20
2023-09-22T07:37:46.615Z,87.59
2023-09-22T07:38:46.478Z,88.49
2023-09-22T07:39:45.944Z,87.79
2023-09-22T07:40:45.877Z,87.99
2023-09-22T07:41:45.856Z,88.70
2023-09-22T07:42:46.271Z,88.49
2023-09-22T07:43:45.926Z,87.59
2023-09-22T07:44:45.939Z,87.48
2023-09-22T07:45:46.002Z,87.99
2023-09-22T07:46:45.965Z,88.60
2023-09-22T07:47:45.917Z,88.20
2023-09-22T07:48:45.995Z,87.28
2023-09-22T07:49:45.881Z,88.20
2023-09-22T07:50:45.862Z,88.40
2023-09-22T07:51:45.825Z,87.69
2023-09-22T07:52:45.834Z,89.31
2023-09-22T07:53:45.811Z,87.99
2023-09-22T07:54:45.721Z,87.48
2023-09-22T07:55:45.699Z,86.88
2023-09-22T07:56:45.692Z,86.83
2023-09-22T07:57:45.712Z,87.65
2023-09-22T07:58:52.509Z,87.54
2023-09-22T07:59:45.670Z,86.73
2023-09-22T08:00:45.674Z,87.59
2023-09-22T08:01:45.709Z,88.35
2023-09-22T08:02:47.603Z,89.17
2023-09-22T08:03:45.673Z,87.89
2023-09-22T08:04:45.648Z,86.94
2023-09-22T08:05:45.605Z,86.43
2023-09-22T08:06:45.614Z,85.62
2023-09-22T08:07:45.605Z,86.02
2023-09-22T08:08:45.803Z,86.02
2023-09-22T08:09:45.591Z,85.72
2023-09-22T08:10:45.583Z,86.02
2023-09-22T08:11:45.538Z,86.33
2023-09-22T08:12:45.547Z,85.93
2023-09-22T08:13:45.535Z,84.97
2023-09-22T08:14:56.935Z,84.87
2023-09-22T08:15:45.574Z,84.67
2023-09-22T08:16:45.528Z,84.97
2023-09-22T08:17:45.493Z,83.92
2023-09-22T08:18:45.635Z,84.12
2023-09-22T08:19:45.455Z,83.51
2023-09-22T08:20:45.435Z,83.92
2023-09-22T08:21:45.446Z,84.12
2023-09-22T08:22:45.415Z,83.41
2023-09-22T08:23:49.464Z,84.22
2023-09-22T08:24:45.463Z,82.60
2023-09-22T08:25:45.761Z,83.51
2023-09-22T08:26:45.374Z,83.21
2023-09-22T08:27:45.388Z,83.51
2023-09-22T08:28:45.481Z,83.35
2023-09-22T08:29:45.361Z,82.34
2023-09-22T08:30:45.369Z,82.54
2023-09-22T08:31:45.315Z,82.44
2023-09-22T08:32:45.409Z,82.54
2023-09-22T08:33:45.395Z,81.83
2023-09-22T08:34:45.340Z,82.24
2023-09-22T08:36:01.726Z,82.34
2023-09-22T08:36:45.282Z,81.93
2023-09-22T08:37:45.258Z,81.32
2023-09-22T08:38:45.447Z,81.12
2023-09-22T08:39:45.274Z,81.43
2023-09-22T08:40:45.243Z,81.32
2023-09-22T08:41:45.208Z,80.41
2023-09-22T08:42:45.283Z,80.18
2023-09-22T08:43:45.234Z,79.97
2023-09-22T08:44:45.193Z,79.87
2023-09-22T08:45:45.297Z,80.27
2023-09-22T08:46:45.266Z,79.77
2023-09-22T08:47:45.246Z,78.58
2023-09-22T08:48:45.487Z,76.52
2023-09-22T08:49:45.136Z,75.37
2023-09-22T08:50:45.125Z,74.53
2023-09-22T08:51:45.229Z,74.29
2023-09-22T08:52:45.092Z,74.40
2023-09-22T08:53:45.098Z,73.65
2023-09-22T08:54:45.133Z,73.15
2023-09-22T08:55:45.057Z,72.95
2023-09-22T08:56:45.043Z,72.44
2023-09-22T08:57:45.145Z,72.85
2023-09-22T08:58:45.223Z,72.44
2023-09-22T08:59:45.035Z,72.14
2023-09-22T09:00:46.231Z,72.41
2023-09-22T09:01:45.092Z,71.67
2023-09-22T09:02:45.063Z,71.37
2023-09-22T09:03:45.344Z,71.80
2023-09-22T09:04:45.038Z,72.20
2023-09-22T09:05:44.954Z,72.14
2023-09-22T09:06:44.968Z,71.91
2023-09-22T09:07:44.973Z,71.73
2023-09-22T09:08:44.920Z,72.88
2023-09-22T09:09:45.096Z,73.18
2023-09-22T09:10:44.915Z,72.71
2023-09-22T09:11:44.906Z,73.32
2023-09-22T09:12:44.919Z,73.55
2023-09-22T09:13:45.040Z,73.55
2023-09-22T09:14:44.892Z,72.75
2023-09-22T09:15:44.943Z,72.95
2023-09-22T09:16:44.880Z,73.35
2023-09-22T09:17:44.870Z,74.60
2023-09-22T09:18:44.860Z,75.01
2023-09-22T09:19:44.815Z,74.40
2023-09-22T09:20:44.821Z,74.70
2023-09-22T09:21:44.872Z,75.04
2023-09-22T09:22:44.784Z,75.75
2023-09-22T09:23:44.891Z,75.45
2023-09-22T09:24:44.782Z,75.45
2023-09-22T09:25:44.759Z,74.84
2023-09-22T09:26:44.749Z,75.04
2023-09-22T09:27:44.784Z,75.41
2023-09-22T09:28:44.738Z,73.99
2023-09-22T09:29:44.751Z,73.79
2023-09-22T09:30:44.765Z,73.96
2023-09-22T09:31:44.939Z,73.75
2023-09-22T09:32:44.681Z,73.86
2023-09-22T09:33:44.930Z,73.15
2023-09-22T09:34:44.656Z,73.35
2023-09-22T09:35:51.215Z,73.35
2023-09-22T09:36:44.721Z,70.96
2023-09-22T09:37:44.624Z,70.22
2023-09-22T09:38:44.611Z,69.59
2023-09-22T09:39:44.692Z,69.55
2023-09-22T09:40:44.628Z,68.01
2023-09-22T09:41:44.646Z,67.33
2023-09-22T09:42:44.642Z,67.16
2023-09-22T09:43:44.771Z,68.17
2023-09-22T09:44:44.555Z,67.87
2023-09-22T09:45:44.680Z,66.86
2023-09-22T09:46:44.576Z,68.17
2023-09-22T09:47:44.554Z,68.17
2023-09-22T09:48:44.639Z,68.07
2023-09-22T09:49:44.495Z,68.37
2023-09-22T09:50:44.501Z,68.48
2023-09-22T09:51:44.555Z,68.88
2023-09-22T09:52:44.465Z,68.48
2023-09-22T09:53:44.662Z,68.48
2023-09-22T09:54:44.560Z,68.27
2023-09-22T09:55:44.607Z,68.74
2023-09-22T09:56:44.450Z,66.70
2023-09-22T09:57:44.426Z,65.49
2023-09-22T09:58:44.463Z,65.66
2023-09-22T09:59:44.389Z,64.95
2023-09-22T10:00:44.425Z,65.69
2023-09-22T10:01:44.530Z,65.59
2023-09-22T10:02:44.420Z,65.89
2023-09-22T10:03:44.898Z,65.26
2023-09-22T10:04:44.362Z,65.59
2023-09-22T10:05:44.324Z,64.89
2023-09-22T10:06:52.473Z,65.46
2023-09-22T10:07:44.295Z,65.06
2023-09-22T10:08:44.305Z,64.45
2023-09-22T10:09:44.311Z,64.02
2023-09-22T10:10:44.279Z,63.21
2023-09-22T10:11:44.324Z,63.11
2023-09-22T10:12:44.267Z,64.15
2023-09-22T10:13:44.476Z,64.48
2023-09-22T10:14:44.215Z,64.48
2023-09-22T10:15:44.237Z,64.72
2023-09-22T10:16:44.251Z,65.99
2023-09-22T10:17:44.201Z,63.95
2023-09-22T10:18:44.269Z,63.31
2023-09-22T10:19:44.156Z,62.58
2023-09-22T10:20:44.156Z,63.08
2023-09-22T10:21:44.206Z,62.71
2023-09-22T10:22:44.124Z,62.41
2023-09-22T10:23:44.245Z,63.14
2023-09-22T10:24:44.184Z,62.77
2023-09-22T10:25:44.139Z,62.66
2023-09-22T10:26:44.126Z,63.57
2023-09-22T10:27:59.903Z,63.60
2023-09-22T10:28:44.162Z,63.00
2023-09-22T10:29:44.043Z,61.46
2023-09-22T10:30:44.098Z,61.76
2023-09-22T10:31:44.172Z,61.76
2023-09-22T10:32:51.576Z,62.16
2023-09-22T10:33:44.386Z,62.37
2023-09-22T10:34:43.988Z,61.63
2023-09-22T10:35:43.972Z,60.93
2023-09-22T10:36:43.983Z,61.80
2023-09-22T10:37:43.995Z,60.80
2023-09-22T10:38:43.946Z,61.40
2023-09-22T10:39:43.936Z,62.10
2023-09-22T10:40:43.918Z,62.18
2023-09-22T10:41:43.908Z,61.94
2023-09-22T10:42:44.007Z,62.75
2023-09-22T10:43:44.095Z,62.32
2023-09-22T10:44:43.896Z,61.91
2023-09-22T10:45:43.953Z,62.15
2023-09-22T10:46:43.927Z,60.91
2023-09-22T10:47:43.913Z,59.98
2023-09-22T10:48:43.876Z,59.78
2023-09-22T10:49:43.816Z,58.87
2023-09-22T10:50:43.826Z,59.27
2023-09-22T10:51:43.851Z,59.10
2023-09-22T10:52:43.817Z,59.94
2023-09-22T10:53:43.980Z,60.24
2023-09-22T10:54:43.768Z,59.83
2023-09-22T10:55:43.787Z,60.13
2023-09-22T10:56:43.752Z,60.84
2023-09-22T10:57:43.731Z,61.04
2023-09-22T10:58:43.797Z,60.91
2023-09-22T10:59:43.744Z,60.71
2023-09-22T11:00:43.726Z,59.83
2023-09-22T11:01:43.792Z,60.13
2023-09-22T11:02:43.748Z,58.83
2023-09-22T11:03:43.918Z,58.50
2023-09-22T11:04:43.853Z,58.50
2023-09-22T11:05:43.732Z,57.79
2023-09-22T11:06:43.624Z,58.09
2023-09-22T11:07:43.681Z,58.20
2023-09-22T11:08:43.640Z,57.19
2023-09-22T11:09:43.633Z,57.79
2023-09-22T11:10:43.661Z,59.00
2023-09-22T11:11:43.600Z,58.70
2023-09-22T11:12:43.565Z,58.00
2023-09-22T11:13:43.712Z,57.90
2023-09-22T11:14:43.534Z,57.50
2023-09-22T11:15:43.526Z,57.70
2023-09-22T11:16:43.589Z,57.29
2023-09-22T11:17:43.572Z,57.70
2023-09-22T11:18:43.509Z,57.67
2023-09-22T11:19:43.500Z,57.87
2023-09-22T11:20:43.469Z,58.47
2023-09-22T11:21:43.455Z,57.87
2023-09-22T11:22:43.447Z,58.57
2023-09-22T11:23:43.685Z,58.67
2023-09-22T11:24:43.425Z,59.55
2023-09-22T11:25:43.538Z,59.05
2023-09-22T11:26:43.412Z,57.24
2023-09-22T11:27:43.381Z,57.64
2023-09-22T11:28:43.416Z,58.27
2023-09-22T11:29:43.355Z,58.94
2023-09-22T11:30:43.342Z,58.14
2023-09-22T11:31:43.387Z,58.14
2023-09-22T11:32:43.433Z,58.31
2023-09-22T11:33:43.558Z,57.51
2023-09-22T11:34:43.388Z,58.62
2023-09-22T11:35:43.347Z,56.88
2023-09-22T11:36:43.288Z,57.79
2023-09-22T11:37:43.290Z,55.98
2023-09-22T11:38:43.264Z,55.47
2023-09-22T11:39:43.285Z,54.77
2023-09-22T11:40:43.267Z,55.20
2023-09-22T11:41:43.219Z,55.51
2023-09-22T11:42:43.211Z,55.20
2023-09-22T11:43:43.415Z,55.10
2023-09-22T11:44:43.191Z,54.80
2023-09-22T11:45:43.207Z,54.63
2023-09-22T11:46:43.191Z,55.73
2023-09-22T11:47:43.147Z,55.63
2023-09-22T11:48:43.142Z,55.96
2023-09-22T11:49:43.178Z,56.46
2023-09-22T11:50:43.143Z,56.36
2023-09-22T11:51:43.098Z,56.76
2023-09-22T11:52:43.117Z,56.96
2023-09-22T11:53:43.273Z,56.56
2023-09-22T11:54:43.081Z,56.46
2023-09-22T11:55:43.111Z,57.14
2023-09-22T11:56:43.098Z,55.63
2023-09-22T11:57:43.031Z,55.53
2023-09-22T11:58:43.046Z,55.63
2023-09-22T11:59:43.019Z,55.13
2023-09-22T12:00:43.006Z,54.93
2023-09-22T12:01:43.180Z,54.33
2023-09-22T12:02:43.115Z,54.43
2023-09-22T12:03:43.236Z,55.13
2023-09-22T12:04:43.048Z,53.92
2023-09-22T12:05:43.056Z,54.63
2023-09-22T12:06:42.947Z,54.83
2023-09-22T12:07:42.943Z,55.26
2023-09-22T12:08:42.917Z,55.05
2023-09-22T12:09:42.902Z,54.96
2023-09-22T12:10:42.920Z,54.35
2023-09-22T12:11:42.876Z,54.33
2023-09-22T12:12:42.898Z,54.33
2023-09-22T12:13:43.070Z,54.93
2023-09-22T12:14:42.922Z,55.43
2023-09-22T12:15:42.868Z,54.13
2023-09-22T12:16:42.860Z,54.83
2023-09-22T12:17:42.846Z,54.13
2023-09-22T12:18:42.803Z,53.90
2023-09-22T12:19:42.836Z,53.39
2023-09-22T12:20:42.775Z,52.89
2023-09-22T12:21:42.789Z,53.52
2023-09-22T12:22:42.820Z,53.62
2023-09-22T12:23:42.846Z,53.12
2023-09-22T12:24:42.760Z,54.02
2023-09-22T12:25:42.807Z,54.60
2023-09-22T12:26:42.731Z,53.90
2023-09-22T12:27:42.714Z,53.00
2023-09-22T12:28:42.704Z,54.30
2023-09-22T12:29:42.678Z,53.97
2023-09-22T12:30:42.704Z,53.39
2023-09-22T12:31:42.758Z,54.20
2023-09-22T12:32:42.740Z,54.80
2023-09-22T12:33:42.713Z,55.00
2023-09-22T12:34:42.702Z,55.20
2023-09-22T12:35:42.629Z,55.60
2023-09-22T12:36:42.602Z,55.53
2023-09-22T12:37:42.645Z,56.54
2023-09-22T12:38:42.591Z,56.63
2023-09-22T12:39:42.566Z,55.73
2023-09-22T12:40:42.579Z,55.80
2023-09-22T12:41:42.553Z,56.01
2023-09-22T12:42:42.551Z,56.10
2023-09-22T12:43:42.635Z,55.20
2023-09-22T12:44:42.513Z,55.80
2023-09-22T12:45:42.571Z,55.73
2023-09-22T12:46:42.522Z,56.46
2023-09-22T12:47:42.513Z,56.06
2023-09-22T12:48:42.468Z,55.73
2023-09-22T12:49:42.516Z,56.03
2023-09-22T12:50:42.482Z,55.51
2023-09-22T12:51:42.447Z,55.33
2023-09-22T12:52:42.437Z,55.83